Colosse, New York
Current Conditions -  °F | °C
As of 8:05 PM on Tuesday 21 Oct 2014 (Local Time) from KFZY Reporting Station
Light Rain Light Rain  
Wind Chill: 45°   Ceiling: 400
Heat Index: 49°   Visibility: 5mi
Dew Point: 46°   Wind: 10mph
Humidity: 90%   Direction: 10°N
Pressure: 29.98"   Gusts: NA
Location:  43.413°N, 76.0731°W
Report Text: KFZY 220005Z AUTO 01009KT 5SM -RA BR OVC004 09/08 A2998 RMK AO2 P0000 T00940078
Loading
Personal Weather Stations






























Interactive Weather Map
Tropical Storm Tracking
New forecast layout! Learn more

10-Day Weather Forecast

Advertisements
Track Severe Weather on mobile